sensor_id;sensor_type;location;lat;lon;timestamp;P1;durP1;ratioP1;P2;durP2;ratioP2
41897;SDS011;27576;53.366;-1.498;2023-05-07T00:00:58;17.65;;;15.88;;
41897;SDS011;27576;53.366;-1.498;2023-05-07T00:03:24;18.67;;;15.43;;
41897;SDS011;27576;53.366;-1.498;2023-05-07T00:05:51;18.13;;;16.10;;
41897;SDS011;27576;53.366;-1.498;2023-05-07T00:08:18;16.33;;;14.55;;
41897;SDS011;27576;53.366;-1.498;2023-05-07T00:10:44;20.10;;;15.40;;
41897;SDS011;27576;53.366;-1.498;2023-05-07T00:13:09;17.10;;;14.85;;
41897;SDS011;27576;53.366;-1.498;2023-05-07T00:15:35;15.73;;;14.13;;
41897;SDS011;27576;53.366;-1.498;2023-05-07T00:18:00;15.43;;;13.88;;
41897;SDS011;27576;53.366;-1.498;2023-05-07T00:20:26;18.98;;;16.98;;
41897;SDS011;27576;53.366;-1.498;2023-05-07T00:22:51;17.00;;;15.30;;
41897;SDS011;27576;53.366;-1.498;2023-05-07T00:25:17;18.42;;;16.52;;
41897;SDS011;27576;53.366;-1.498;2023-05-07T00:27:44;19.00;;;16.95;;
41897;SDS011;27576;53.366;-1.498;2023-05-07T00:30:10;19.23;;;16.65;;
41897;SDS011;27576;53.366;-1.498;2023-05-07T00:32:35;17.23;;;15.00;;
41897;SDS011;27576;53.366;-1.498;2023-05-07T00:35:01;18.10;;;16.20;;
41897;SDS011;27576;53.366;-1.498;2023-05-07T00:37:27;19.08;;;15.85;;
41897;SDS011;27576;53.366;-1.498;2023-05-07T00:39:52;19.55;;;17.45;;
41897;SDS011;27576;53.366;-1.498;2023-05-07T00:42:18;18.95;;;16.95;;
41897;SDS011;27576;53.366;-1.498;2023-05-07T00:44:43;19.58;;;17.13;;
41897;SDS011;27576;53.366;-1.498;2023-05-07T00:47:08;20.13;;;16.58;;
41897;SDS011;27576;53.366;-1.498;2023-05-07T00:49:38;19.13;;;16.02;;
41897;SDS011;27576;53.366;-1.498;2023-05-07T00:52:06;19.42;;;17.35;;
41897;SDS011;27576;53.366;-1.498;2023-05-07T00:54:33;24.02;;;19.52;;
41897;SDS011;27576;53.366;-1.498;2023-05-07T00:56:59;22.85;;;18.80;;
41897;SDS011;27576;53.366;-1.498;2023-05-07T00:59:26;18.67;;;16.67;;
41897;SDS011;27576;53.366;-1.498;2023-05-07T01:01:52;16.63;;;14.90;;
41897;SDS011;27576;53.366;-1.498;2023-05-07T01:04:18;20.40;;;18.20;;
41897;SDS011;27576;53.366;-1.498;2023-05-07T01:06:44;18.38;;;16.13;;
41897;SDS011;27576;53.366;-1.498;2023-05-07T01:09:10;20.00;;;17.52;;
41897;SDS011;27576;53.366;-1.498;2023-05-07T01:11:36;19.05;;;17.02;;
41897;SDS011;27576;53.366;-1.498;2023-05-07T01:14:02;20.52;;;16.23;;
41897;SDS011;27576;53.366;-1.498;2023-05-07T01:16:28;19.85;;;17.73;;
41897;SDS011;27576;53.366;-1.498;2023-05-07T01:18:53;19.48;;;16.13;;
41897;SDS011;27576;53.366;-1.498;2023-05-07T01:21:18;20.25;;;17.88;;
41897;SDS011;27576;53.366;-1.498;2023-05-07T01:23:50;18.38;;;16.13;;
41897;SDS011;27576;53.366;-1.498;2023-05-07T01:26:15;20.30;;;15.77;;
41897;SDS011;27576;53.366;-1.498;2023-05-07T01:28:41;20.80;;;17.48;;
41897;SDS011;27576;53.366;-1.498;2023-05-07T01:31:06;24.25;;;19.85;;
41897;SDS011;27576;53.366;-1.498;2023-05-07T01:33:33;20.02;;;16.98;;
41897;SDS011;27576;53.366;-1.498;2023-05-07T01:36:01;22.85;;;19.02;;
41897;SDS011;27576;53.366;-1.498;2023-05-07T01:38:31;20.70;;;17.83;;
41897;SDS011;27576;53.366;-1.498;2023-05-07T01:40:57;21.90;;;17.95;;
41897;SDS011;27576;53.366;-1.498;2023-05-07T01:43:23;24.45;;;19.83;;
41897;SDS011;27576;53.366;-1.498;2023-05-07T01:45:48;20.77;;;18.52;;
41897;SDS011;27576;53.366;-1.498;2023-05-07T01:48:14;21.70;;;18.45;;
41897;SDS011;27576;53.366;-1.498;2023-05-07T01:50:41;20.30;;;17.95;;
41897;SDS011;27576;53.366;-1.498;2023-05-07T01:53:07;23.60;;;19.65;;
41897;SDS011;27576;53.366;-1.498;2023-05-07T01:55:33;22.42;;;18.88;;
41897;SDS011;27576;53.366;-1.498;2023-05-07T01:57:58;22.85;;;19.38;;
41897;SDS011;27576;53.366;-1.498;2023-05-07T02:00:24;22.02;;;19.48;;
41897;SDS011;27576;53.366;-1.498;2023-05-07T02:02:49;24.30;;;19.25;;
41897;SDS011;27576;53.366;-1.498;2023-05-07T02:05:15;23.80;;;19.20;;
41897;SDS011;27576;53.366;-1.498;2023-05-07T02:07:40;26.48;;;21.08;;
41897;SDS011;27576;53.366;-1.498;2023-05-07T02:10:06;22.75;;;19.33;;
41897;SDS011;27576;53.366;-1.498;2023-05-07T02:12:31;25.05;;;20.45;;
41897;SDS011;27576;53.366;-1.498;2023-05-07T02:14:57;24.67;;;19.88;;
41897;SDS011;27576;53.366;-1.498;2023-05-07T02:17:22;20.77;;;17.75;;
41897;SDS011;27576;53.366;-1.498;2023-05-07T02:19:47;25.02;;;19.05;;
41897;SDS011;27576;53.366;-1.498;2023-05-07T02:22:13;21.83;;;19.08;;
41897;SDS011;27576;53.366;-1.498;2023-05-07T02:24:38;27.65;;;21.15;;
41897;SDS011;27576;53.366;-1.498;2023-05-07T02:27:03;27.10;;;20.55;;
41897;SDS011;27576;53.366;-1.498;2023-05-07T02:29:29;25.50;;;20.15;;
41897;SDS011;27576;53.366;-1.498;2023-05-07T02:31:54;23.13;;;18.77;;
41897;SDS011;27576;53.366;-1.498;2023-05-07T02:34:20;23.30;;;19.42;;
41897;SDS011;27576;53.366;-1.498;2023-05-07T02:36:46;23.58;;;17.75;;
41897;SDS011;27576;53.366;-1.498;2023-05-07T02:39:12;21.50;;;17.60;;
41897;SDS011;27576;53.366;-1.498;2023-05-07T02:41:37;22.30;;;15.90;;
41897;SDS011;27576;53.366;-1.498;2023-05-07T02:44:03;19.73;;;16.17;;
41897;SDS011;27576;53.366;-1.498;2023-05-07T02:46:28;20.73;;;16.58;;
41897;SDS011;27576;53.366;-1.498;2023-05-07T02:48:54;20.10;;;15.60;;
41897;SDS011;27576;53.366;-1.498;2023-05-07T02:51:20;21.50;;;17.30;;
41897;SDS011;27576;53.366;-1.498;2023-05-07T02:53:47;20.92;;;17.30;;
41897;SDS011;27576;53.366;-1.498;2023-05-07T02:56:12;31.42;;;18.80;;
41897;SDS011;27576;53.366;-1.498;2023-05-07T02:58:38;24.95;;;19.30;;
41897;SDS011;27576;53.366;-1.498;2023-05-07T03:01:07;22.98;;;18.30;;
41897;SDS011;27576;53.366;-1.498;2023-05-07T03:03:32;26.15;;;18.42;;
41897;SDS011;27576;53.366;-1.498;2023-05-07T03:05:58;20.10;;;15.52;;
41897;SDS011;27576;53.366;-1.498;2023-05-07T03:08:23;19.50;;;14.70;;
41897;SDS011;27576;53.366;-1.498;2023-05-07T03:10:49;23.08;;;17.98;;
41897;SDS011;27576;53.366;-1.498;2023-05-07T03:13:15;18.88;;;15.25;;
41897;SDS011;27576;53.366;-1.498;2023-05-07T03:15:40;22.27;;;15.77;;
41897;SDS011;27576;53.366;-1.498;2023-05-07T03:18:06;23.35;;;17.50;;
41897;SDS011;27576;53.366;-1.498;2023-05-07T03:20:31;20.92;;;16.92;;
41897;SDS011;27576;53.366;-1.498;2023-05-07T03:22:57;21.73;;;15.40;;
41897;SDS011;27576;53.366;-1.498;2023-05-07T03:25:22;21.73;;;16.73;;
41897;SDS011;27576;53.366;-1.498;2023-05-07T03:27:48;22.08;;;15.30;;
41897;SDS011;27576;53.366;-1.498;2023-05-07T03:30:13;22.73;;;16.88;;
41897;SDS011;27576;53.366;-1.498;2023-05-07T03:32:39;27.73;;;17.83;;
41897;SDS011;27576;53.366;-1.498;2023-05-07T03:35:04;22.30;;;15.57;;
41897;SDS011;27576;53.366;-1.498;2023-05-07T03:37:30;20.95;;;15.95;;
41897;SDS011;27576;53.366;-1.498;2023-05-07T03:39:55;23.48;;;17.23;;
41897;SDS011;27576;53.366;-1.498;2023-05-07T03:42:21;20.13;;;15.40;;
41897;SDS011;27576;53.366;-1.498;2023-05-07T03:44:46;20.73;;;15.75;;
41897;SDS011;27576;53.366;-1.498;2023-05-07T03:47:11;18.88;;;14.85;;
41897;SDS011;27576;53.366;-1.498;2023-05-07T03:49:38;17.52;;;13.93;;
41897;SDS011;27576;53.366;-1.498;2023-05-07T03:52:03;20.30;;;14.18;;
41897;SDS011;27576;53.366;-1.498;2023-05-07T03:54:29;21.08;;;15.30;;
41897;SDS011;27576;53.366;-1.498;2023-05-07T03:56:55;24.35;;;17.60;;
41897;SDS011;27576;53.366;-1.498;2023-05-07T03:59:21;24.15;;;17.30;;
41897;SDS011;27576;53.366;-1.498;2023-05-07T04:01:46;20.35;;;15.65;;
41897;SDS011;27576;53.366;-1.498;2023-05-07T04:04:12;23.15;;;16.80;;
41897;SDS011;27576;53.366;-1.498;2023-05-07T04:06:37;23.95;;;16.60;;
41897;SDS011;27576;53.366;-1.498;2023-05-07T04:09:03;19.25;;;14.23;;
41897;SDS011;27576;53.366;-1.498;2023-05-07T04:11:28;22.90;;;15.20;;
41897;SDS011;27576;53.366;-1.498;2023-05-07T04:13:54;20.30;;;14.88;;
41897;SDS011;27576;53.366;-1.498;2023-05-07T04:16:19;23.40;;;13.65;;
41897;SDS011;27576;53.366;-1.498;2023-05-07T04:18:44;20.50;;;12.85;;
41897;SDS011;27576;53.366;-1.498;2023-05-07T04:21:13;16.02;;;12.20;;
41897;SDS011;27576;53.366;-1.498;2023-05-07T04:23:48;14.88;;;11.07;;
41897;SDS011;27576;53.366;-1.498;2023-05-07T04:26:14;19.58;;;13.45;;
41897;SDS011;27576;53.366;-1.498;2023-05-07T04:28:40;17.17;;;12.95;;
41897;SDS011;27576;53.366;-1.498;2023-05-07T04:31:05;16.95;;;11.73;;
41897;SDS011;27576;53.366;-1.498;2023-05-07T04:33:31;14.45;;;11.07;;
41897;SDS011;27576;53.366;-1.498;2023-05-07T04:35:58;16.40;;;11.95;;
41897;SDS011;27576;53.366;-1.498;2023-05-07T04:38:27;16.00;;;12.05;;
41897;SDS011;27576;53.366;-1.498;2023-05-07T04:40:53;15.55;;;11.32;;
41897;SDS011;27576;53.366;-1.498;2023-05-07T04:43:19;18.25;;;12.05;;
41897;SDS011;27576;53.366;-1.498;2023-05-07T04:45:45;17.00;;;12.75;;
41897;SDS011;27576;53.366;-1.498;2023-05-07T04:48:10;14.25;;;11.70;;
41897;SDS011;27576;53.366;-1.498;2023-05-07T04:50:36;16.75;;;10.95;;
41897;SDS011;27576;53.366;-1.498;2023-05-07T04:53:01;13.25;;;11.05;;
41897;SDS011;27576;53.366;-1.498;2023-05-07T04:55:28;15.95;;;11.43;;
41897;SDS011;27576;53.366;-1.498;2023-05-07T04:57:53;13.13;;;10.55;;
41897;SDS011;27576;53.366;-1.498;2023-05-07T05:00:18;10.18;;;8.57;;
41897;SDS011;27576;53.366;-1.498;2023-05-07T05:02:44;18.30;;;8.77;;
41897;SDS011;27576;53.366;-1.498;2023-05-07T05:05:10;10.25;;;9.00;;
41897;SDS011;27576;53.366;-1.498;2023-05-07T05:07:36;8.40;;;6.40;;
41897;SDS011;27576;53.366;-1.498;2023-05-07T05:10:02;8.80;;;7.05;;
41897;SDS011;27576;53.366;-1.498;2023-05-07T05:12:28;8.43;;;7.43;;
41897;SDS011;27576;53.366;-1.498;2023-05-07T05:14:55;9.05;;;7.82;;
41897;SDS011;27576;53.366;-1.498;2023-05-07T05:17:20;10.23;;;8.52;;
41897;SDS011;27576;53.366;-1.498;2023-05-07T05:19:45;10.65;;;7.97;;
41897;SDS011;27576;53.366;-1.498;2023-05-07T05:22:11;15.80;;;11.82;;
41897;SDS011;27576;53.366;-1.498;2023-05-07T05:24:36;12.02;;;10.15;;
41897;SDS011;27576;53.366;-1.498;2023-05-07T05:27:01;8.35;;;7.38;;
41897;SDS011;27576;53.366;-1.498;2023-05-07T05:29:27;6.95;;;6.18;;
41897;SDS011;27576;53.366;-1.498;2023-05-07T05:31:53;7.43;;;6.60;;
41897;SDS011;27576;53.366;-1.498;2023-05-07T05:34:18;7.25;;;6.28;;
41897;SDS011;27576;53.366;-1.498;2023-05-07T05:36:47;7.18;;;5.90;;
41897;SDS011;27576;53.366;-1.498;2023-05-07T05:39:12;4.97;;;4.47;;
41897;SDS011;27576;53.366;-1.498;2023-05-07T05:41:37;5.55;;;4.97;;
41897;SDS011;27576;53.366;-1.498;2023-05-07T05:44:03;6.07;;;4.75;;
41897;SDS011;27576;53.366;-1.498;2023-05-07T05:46:28;5.75;;;5.20;;
41897;SDS011;27576;53.366;-1.498;2023-05-07T05:48:55;5.78;;;5.20;;
41897;SDS011;27576;53.366;-1.498;2023-05-07T05:51:20;8.90;;;5.05;;
41897;SDS011;27576;53.366;-1.498;2023-05-07T05:53:46;5.75;;;4.88;;
41897;SDS011;27576;53.366;-1.498;2023-05-07T05:56:12;7.00;;;5.80;;
41897;SDS011;27576;53.366;-1.498;2023-05-07T05:58:37;6.93;;;5.28;;
41897;SDS011;27576;53.366;-1.498;2023-05-07T06:01:02;5.90;;;5.30;;
41897;SDS011;27576;53.366;-1.498;2023-05-07T06:03:28;5.20;;;4.70;;
41897;SDS011;27576;53.366;-1.498;2023-05-07T06:05:54;6.32;;;5.65;;
41897;SDS011;27576;53.366;-1.498;2023-05-07T06:08:19;9.13;;;5.85;;
41897;SDS011;27576;53.366;-1.498;2023-05-07T06:10:44;5.78;;;4.78;;
41897;SDS011;27576;53.366;-1.498;2023-05-07T06:13:10;8.00;;;4.68;;
41897;SDS011;27576;53.366;-1.498;2023-05-07T06:15:35;5.03;;;4.63;;
41897;SDS011;27576;53.366;-1.498;2023-05-07T06:18:01;5.85;;;5.35;;
41897;SDS011;27576;53.366;-1.498;2023-05-07T06:20:26;5.68;;;5.13;;
41897;SDS011;27576;53.366;-1.498;2023-05-07T06:22:51;6.43;;;5.82;;
41897;SDS011;27576;53.366;-1.498;2023-05-07T06:25:17;6.78;;;5.53;;
41897;SDS011;27576;53.366;-1.498;2023-05-07T06:27:42;6.88;;;5.85;;
41897;SDS011;27576;53.366;-1.498;2023-05-07T06:30:08;9.27;;;7.32;;
41897;SDS011;27576;53.366;-1.498;2023-05-07T06:32:33;9.18;;;7.85;;
41897;SDS011;27576;53.366;-1.498;2023-05-07T06:34:59;7.22;;;6.32;;
41897;SDS011;27576;53.366;-1.498;2023-05-07T06:37:25;6.65;;;6.05;;
41897;SDS011;27576;53.366;-1.498;2023-05-07T06:39:50;6.65;;;5.90;;
41897;SDS011;27576;53.366;-1.498;2023-05-07T06:42:15;7.72;;;6.13;;
41897;SDS011;27576;53.366;-1.498;2023-05-07T06:44:41;7.55;;;6.50;;
41897;SDS011;27576;53.366;-1.498;2023-05-07T06:47:06;7.40;;;6.60;;
41897;SDS011;27576;53.366;-1.498;2023-05-07T06:49:32;8.75;;;6.85;;
41897;SDS011;27576;53.366;-1.498;2023-05-07T06:51:58;6.22;;;5.50;;
41897;SDS011;27576;53.366;-1.498;2023-05-07T06:54:23;6.50;;;5.80;;
41897;SDS011;27576;53.366;-1.498;2023-05-07T06:56:48;12.88;;;7.97;;
41897;SDS011;27576;53.366;-1.498;2023-05-07T06:59:14;7.95;;;7.15;;
41897;SDS011;27576;53.366;-1.498;2023-05-07T07:01:39;9.07;;;7.85;;
41897;SDS011;27576;53.366;-1.498;2023-05-07T07:04:05;7.63;;;6.82;;
41897;SDS011;27576;53.366;-1.498;2023-05-07T07:06:30;7.82;;;7.03;;
41897;SDS011;27576;53.366;-1.498;2023-05-07T07:08:57;9.10;;;6.78;;
41897;SDS011;27576;53.366;-1.498;2023-05-07T07:11:22;9.32;;;6.40;;
41897;SDS011;27576;53.366;-1.498;2023-05-07T07:13:48;7.55;;;6.68;;
41897;SDS011;27576;53.366;-1.498;2023-05-07T07:16:13;10.18;;;7.18;;
41897;SDS011;27576;53.366;-1.498;2023-05-07T07:18:39;10.02;;;7.25;;
41897;SDS011;27576;53.366;-1.498;2023-05-07T07:21:04;8.88;;;7.90;;
41897;SDS011;27576;53.366;-1.498;2023-05-07T07:23:30;11.13;;;8.20;;
41897;SDS011;27576;53.366;-1.498;2023-05-07T07:25:55;8.65;;;7.75;;
41897;SDS011;27576;53.366;-1.498;2023-05-07T07:28:21;10.52;;;8.85;;
41897;SDS011;27576;53.366;-1.498;2023-05-07T07:30:47;12.60;;;8.90;;
41897;SDS011;27576;53.366;-1.498;2023-05-07T07:33:12;10.02;;;8.32;;
41897;SDS011;27576;53.366;-1.498;2023-05-07T07:35:37;11.15;;;8.75;;
41897;SDS011;27576;53.366;-1.498;2023-05-07T07:38:03;10.80;;;9.05;;
41897;SDS011;27576;53.366;-1.498;2023-05-07T07:40:28;10.43;;;8.50;;
41897;SDS011;27576;53.366;-1.498;2023-05-07T07:42:54;11.30;;;8.77;;
41897;SDS011;27576;53.366;-1.498;2023-05-07T07:45:19;9.65;;;8.55;;
41897;SDS011;27576;53.366;-1.498;2023-05-07T07:47:45;9.82;;;7.63;;
41897;SDS011;27576;53.366;-1.498;2023-05-07T07:50:11;8.73;;;7.22;;
41897;SDS011;27576;53.366;-1.498;2023-05-07T07:52:36;8.77;;;7.78;;
41897;SDS011;27576;53.366;-1.498;2023-05-07T07:55:02;9.15;;;7.82;;
41897;SDS011;27576;53.366;-1.498;2023-05-07T07:57:28;8.13;;;6.97;;
41897;SDS011;27576;53.366;-1.498;2023-05-07T07:59:53;7.47;;;6.28;;
41897;SDS011;27576;53.366;-1.498;2023-05-07T08:02:19;7.68;;;6.85;;
41897;SDS011;27576;53.366;-1.498;2023-05-07T08:04:44;7.95;;;6.28;;
41897;SDS011;27576;53.366;-1.498;2023-05-07T08:07:10;10.52;;;6.97;;
41897;SDS011;27576;53.366;-1.498;2023-05-07T08:09:36;9.38;;;7.10;;
41897;SDS011;27576;53.366;-1.498;2023-05-07T08:12:02;6.97;;;5.85;;
41897;SDS011;27576;53.366;-1.498;2023-05-07T08:14:28;7.85;;;6.57;;
41897;SDS011;27576;53.366;-1.498;2023-05-07T08:16:54;6.25;;;5.32;;
41897;SDS011;27576;53.366;-1.498;2023-05-07T08:19:20;11.32;;;6.07;;
41897;SDS011;27576;53.366;-1.498;2023-05-07T08:21:46;6.90;;;6.05;;
41897;SDS011;27576;53.366;-1.498;2023-05-07T08:24:15;6.50;;;4.72;;
41897;SDS011;27576;53.366;-1.498;2023-05-07T08:26:41;5.90;;;5.10;;
41897;SDS011;27576;53.366;-1.498;2023-05-07T08:29:07;5.85;;;4.90;;
41897;SDS011;27576;53.366;-1.498;2023-05-07T08:31:33;5.68;;;5.07;;
41897;SDS011;27576;53.366;-1.498;2023-05-07T08:33:58;5.80;;;4.93;;
41897;SDS011;27576;53.366;-1.498;2023-05-07T08:36:24;8.57;;;4.10;;
41897;SDS011;27576;53.366;-1.498;2023-05-07T08:38:50;6.20;;;5.25;;
41897;SDS011;27576;53.366;-1.498;2023-05-07T08:41:16;7.18;;;5.13;;
41897;SDS011;27576;53.366;-1.498;2023-05-07T08:43:41;5.43;;;4.93;;
41897;SDS011;27576;53.366;-1.498;2023-05-07T08:46:09;6.63;;;4.68;;
41897;SDS011;27576;53.366;-1.498;2023-05-07T08:48:36;4.43;;;3.95;;
41897;SDS011;27576;53.366;-1.498;2023-05-07T08:51:02;4.07;;;3.67;;
41897;SDS011;27576;53.366;-1.498;2023-05-07T08:53:27;3.70;;;3.25;;
41897;SDS011;27576;53.366;-1.498;2023-05-07T08:55:53;4.07;;;3.08;;
41897;SDS011;27576;53.366;-1.498;2023-05-07T08:58:18;7.03;;;4.72;;
41897;SDS011;27576;53.366;-1.498;2023-05-07T09:00:44;4.95;;;3.80;;
41897;SDS011;27576;53.366;-1.498;2023-05-07T09:03:13;4.75;;;3.38;;
41897;SDS011;27576;53.366;-1.498;2023-05-07T09:05:39;5.07;;;4.40;;
41897;SDS011;27576;53.366;-1.498;2023-05-07T09:08:05;5.13;;;3.90;;
41897;SDS011;27576;53.366;-1.498;2023-05-07T09:10:32;4.65;;;4.03;;
41897;SDS011;27576;53.366;-1.498;2023-05-07T09:12:58;4.07;;;3.67;;
41897;SDS011;27576;53.366;-1.498;2023-05-07T09:15:24;5.95;;;4.05;;
41897;SDS011;27576;53.366;-1.498;2023-05-07T09:17:50;4.60;;;3.55;;
41897;SDS011;27576;53.366;-1.498;2023-05-07T09:20:15;5.25;;;4.55;;
41897;SDS011;27576;53.366;-1.498;2023-05-07T09:22:41;3.95;;;3.65;;
41897;SDS011;27576;53.366;-1.498;2023-05-07T09:25:07;5.75;;;4.97;;
41897;SDS011;27576;53.366;-1.498;2023-05-07T09:27:34;6.57;;;5.13;;
41897;SDS011;27576;53.366;-1.498;2023-05-07T09:30:02;5.07;;;4.25;;
41897;SDS011;27576;53.366;-1.498;2023-05-07T09:32:29;4.82;;;4.32;;
41897;SDS011;27576;53.366;-1.498;2023-05-07T09:34:56;6.05;;;4.55;;
41897;SDS011;27576;53.366;-1.498;2023-05-07T09:37:21;7.20;;;4.25;;
41897;SDS011;27576;53.366;-1.498;2023-05-07T09:39:47;4.32;;;3.60;;
41897;SDS011;27576;53.366;-1.498;2023-05-07T09:42:13;4.72;;;4.22;;
41897;SDS011;27576;53.366;-1.498;2023-05-07T09:44:45;6.18;;;4.65;;
41897;SDS011;27576;53.366;-1.498;2023-05-07T09:47:12;5.57;;;4.53;;
41897;SDS011;27576;53.366;-1.498;2023-05-07T09:49:43;4.80;;;4.30;;
41897;SDS011;27576;53.366;-1.498;2023-05-07T09:52:12;4.90;;;3.97;;
41897;SDS011;27576;53.366;-1.498;2023-05-07T09:54:39;5.20;;;4.57;;
41897;SDS011;27576;53.366;-1.498;2023-05-07T09:57:08;6.60;;;4.90;;
41897;SDS011;27576;53.366;-1.498;2023-05-07T09:59:35;9.15;;;5.07;;
41897;SDS011;27576;53.366;-1.498;2023-05-07T10:02:03;4.50;;;4.03;;
41897;SDS011;27576;53.366;-1.498;2023-05-07T10:04:29;6.22;;;3.90;;
41897;SDS011;27576;53.366;-1.498;2023-05-07T10:06:56;5.47;;;4.75;;
41897;SDS011;27576;53.366;-1.498;2023-05-07T10:09:23;5.18;;;3.92;;
41897;SDS011;27576;53.366;-1.498;2023-05-07T10:11:50;4.55;;;3.90;;
41897;SDS011;27576;53.366;-1.498;2023-05-07T10:14:17;4.00;;;3.60;;
41897;SDS011;27576;53.366;-1.498;2023-05-07T10:16:45;4.10;;;3.30;;
41897;SDS011;27576;53.366;-1.498;2023-05-07T10:19:13;3.45;;;3.13;;
41897;SDS011;27576;53.366;-1.498;2023-05-07T10:21:44;4.53;;;3.47;;
41897;SDS011;27576;53.366;-1.498;2023-05-07T10:24:26;6.10;;;3.85;;
41897;SDS011;27576;53.366;-1.498;2023-05-07T10:26:54;4.32;;;3.78;;
41897;SDS011;27576;53.366;-1.498;2023-05-07T10:31:59;3.50;;;3.00;;
41897;SDS011;27576;53.366;-1.498;2023-05-07T10:34:32;3.42;;;3.13;;
41897;SDS011;27576;53.366;-1.498;2023-05-07T10:37:02;3.17;;;2.88;;
41897;SDS011;27576;53.366;-1.498;2023-05-07T10:39:29;5.15;;;3.47;;
41897;SDS011;27576;53.366;-1.498;2023-05-07T10:41:55;4.50;;;3.40;;
41897;SDS011;27576;53.366;-1.498;2023-05-07T10:44:29;5.60;;;3.67;;
41897;SDS011;27576;53.366;-1.498;2023-05-07T10:54:36;5.50;;;3.40;;
41897;SDS011;27576;53.366;-1.498;2023-05-07T11:05:26;5.15;;;3.53;;
41897;SDS011;27576;53.366;-1.498;2023-05-07T11:07:57;2.92;;;2.40;;
41897;SDS011;27576;53.366;-1.498;2023-05-07T11:13:19;3.67;;;2.95;;
41897;SDS011;27576;53.366;-1.498;2023-05-07T11:16:21;4.57;;;2.55;;
41897;SDS011;27576;53.366;-1.498;2023-05-07T11:18:52;3.28;;;2.45;;
41897;SDS011;27576;53.366;-1.498;2023-05-07T11:23:57;3.15;;;2.53;;
41897;SDS011;27576;53.366;-1.498;2023-05-07T11:26:23;3.13;;;2.25;;
41897;SDS011;27576;53.366;-1.498;2023-05-07T11:28:50;6.13;;;2.88;;
41897;SDS011;27576;53.366;-1.498;2023-05-07T11:31:20;2.85;;;2.42;;
41897;SDS011;27576;53.366;-1.498;2023-05-07T11:33:48;7.25;;;3.30;;
41897;SDS011;27576;53.366;-1.498;2023-05-07T11:36:13;3.85;;;2.42;;
41897;SDS011;27576;53.366;-1.498;2023-05-07T11:38:39;4.22;;;2.70;;
41897;SDS011;27576;53.366;-1.498;2023-05-07T11:41:04;3.00;;;1.65;;
41897;SDS011;27576;53.366;-1.498;2023-05-07T11:43:33;6.28;;;2.40;;
41897;SDS011;27576;53.366;-1.498;2023-05-07T11:46:07;3.40;;;2.35;;
41897;SDS011;27576;53.366;-1.498;2023-05-07T11:48:37;3.60;;;1.90;;
41897;SDS011;27576;53.366;-1.498;2023-05-07T11:51:04;5.18;;;2.40;;
41897;SDS011;27576;53.366;-1.498;2023-05-07T11:53:35;3.28;;;1.80;;
41897;SDS011;27576;53.366;-1.498;2023-05-07T11:56:08;4.85;;;2.00;;
41897;SDS011;27576;53.366;-1.498;2023-05-07T11:58:35;5.20;;;2.25;;
41897;SDS011;27576;53.366;-1.498;2023-05-07T12:01:01;4.20;;;2.42;;
41897;SDS011;27576;53.366;-1.498;2023-05-07T12:03:27;3.80;;;2.40;;
41897;SDS011;27576;53.366;-1.498;2023-05-07T12:05:53;4.80;;;2.47;;
41897;SDS011;27576;53.366;-1.498;2023-05-07T12:08:19;3.63;;;1.90;;
41897;SDS011;27576;53.366;-1.498;2023-05-07T12:10:46;3.20;;;2.20;;
41897;SDS011;27576;53.366;-1.498;2023-05-07T12:13:14;5.93;;;2.25;;
41897;SDS011;27576;53.366;-1.498;2023-05-07T12:15:46;4.78;;;2.22;;
41897;SDS011;27576;53.366;-1.498;2023-05-07T12:18:16;3.92;;;2.05;;
41897;SDS011;27576;53.366;-1.498;2023-05-07T12:20:41;3.00;;;1.77;;
41897;SDS011;27576;53.366;-1.498;2023-05-07T12:23:07;4.15;;;2.13;;
41897;SDS011;27576;53.366;-1.498;2023-05-07T12:25:36;4.88;;;2.03;;
41897;SDS011;27576;53.366;-1.498;2023-05-07T12:28:02;4.88;;;2.28;;
41897;SDS011;27576;53.366;-1.498;2023-05-07T12:30:30;7.88;;;2.35;;
41897;SDS011;27576;53.366;-1.498;2023-05-07T12:33:05;4.10;;;1.88;;
41897;SDS011;27576;53.366;-1.498;2023-05-07T12:35:32;4.53;;;1.98;;
41897;SDS011;27576;53.366;-1.498;2023-05-07T12:38:01;4.22;;;1.80;;
41897;SDS011;27576;53.366;-1.498;2023-05-07T12:40:42;3.38;;;1.85;;
41897;SDS011;27576;53.366;-1.498;2023-05-07T12:43:19;3.05;;;1.52;;
41897;SDS011;27576;53.366;-1.498;2023-05-07T12:45:49;4.95;;;2.55;;
41897;SDS011;27576;53.366;-1.498;2023-05-07T12:48:15;3.08;;;1.90;;
41897;SDS011;27576;53.366;-1.498;2023-05-07T12:50:41;3.13;;;1.77;;
41897;SDS011;27576;53.366;-1.498;2023-05-07T12:53:07;3.72;;;1.88;;
41897;SDS011;27576;53.366;-1.498;2023-05-07T12:55:43;1.77;;;1.40;;
41897;SDS011;27576;53.366;-1.498;2023-05-07T12:58:20;5.60;;;2.15;;
41897;SDS011;27576;53.366;-1.498;2023-05-07T13:00:58;3.92;;;1.73;;
41897;SDS011;27576;53.366;-1.498;2023-05-07T13:03:29;3.45;;;1.70;;
41897;SDS011;27576;53.366;-1.498;2023-05-07T13:06:04;4.35;;;1.67;;
41897;SDS011;27576;53.366;-1.498;2023-05-07T13:08:35;5.65;;;1.50;;
41897;SDS011;27576;53.366;-1.498;2023-05-07T13:11:03;4.85;;;1.60;;
41897;SDS011;27576;53.366;-1.498;2023-05-07T13:13:32;5.60;;;2.00;;
41897;SDS011;27576;53.366;-1.498;2023-05-07T13:15:59;3.47;;;1.70;;
41897;SDS011;27576;53.366;-1.498;2023-05-07T13:18:25;6.50;;;2.28;;
41897;SDS011;27576;53.366;-1.498;2023-05-07T13:20:51;5.13;;;2.33;;
41897;SDS011;27576;53.366;-1.498;2023-05-07T13:23:17;4.68;;;1.73;;
41897;SDS011;27576;53.366;-1.498;2023-05-07T13:25:44;4.85;;;1.90;;
41897;SDS011;27576;53.366;-1.498;2023-05-07T13:28:09;4.10;;;2.00;;
41897;SDS011;27576;53.366;-1.498;2023-05-07T13:30:34;7.90;;;2.53;;
41897;SDS011;27576;53.366;-1.498;2023-05-07T13:33:00;4.72;;;1.60;;
41897;SDS011;27576;53.366;-1.498;2023-05-07T13:35:25;4.65;;;1.55;;
41897;SDS011;27576;53.366;-1.498;2023-05-07T13:37:51;6.40;;;1.80;;
41897;SDS011;27576;53.366;-1.498;2023-05-07T13:40:17;6.80;;;2.50;;
41897;SDS011;27576;53.366;-1.498;2023-05-07T13:42:43;4.05;;;1.83;;
41897;SDS011;27576;53.366;-1.498;2023-05-07T13:45:09;3.58;;;1.88;;
41897;SDS011;27576;53.366;-1.498;2023-05-07T13:47:35;7.15;;;2.15;;
41897;SDS011;27576;53.366;-1.498;2023-05-07T13:50:00;5.40;;;2.47;;
41897;SDS011;27576;53.366;-1.498;2023-05-07T13:52:26;4.20;;;1.90;;
41897;SDS011;27576;53.366;-1.498;2023-05-07T13:54:51;3.80;;;2.03;;
41897;SDS011;27576;53.366;-1.498;2023-05-07T13:57:17;4.15;;;1.77;;
41897;SDS011;27576;53.366;-1.498;2023-05-07T13:59:43;5.40;;;2.75;;
41897;SDS011;27576;53.366;-1.498;2023-05-07T14:02:08;4.65;;;1.83;;
41897;SDS011;27576;53.366;-1.498;2023-05-07T14:04:34;3.88;;;2.03;;
41897;SDS011;27576;53.366;-1.498;2023-05-07T14:06:59;3.65;;;1.98;;
41897;SDS011;27576;53.366;-1.498;2023-05-07T14:09:25;6.28;;;2.33;;
41897;SDS011;27576;53.366;-1.498;2023-05-07T14:11:50;7.93;;;2.53;;
41897;SDS011;27576;53.366;-1.498;2023-05-07T14:14:19;4.30;;;1.65;;
41897;SDS011;27576;53.366;-1.498;2023-05-07T14:16:44;4.38;;;1.95;;
41897;SDS011;27576;53.366;-1.498;2023-05-07T14:19:10;5.35;;;1.88;;
41897;SDS011;27576;53.366;-1.498;2023-05-07T14:21:37;5.68;;;1.70;;
41897;SDS011;27576;53.366;-1.498;2023-05-07T14:24:02;5.97;;;2.15;;
41897;SDS011;27576;53.366;-1.498;2023-05-07T14:26:28;4.80;;;2.10;;
41897;SDS011;27576;53.366;-1.498;2023-05-07T14:28:54;6.78;;;1.80;;
41897;SDS011;27576;53.366;-1.498;2023-05-07T14:31:22;5.22;;;1.77;;
41897;SDS011;27576;53.366;-1.498;2023-05-07T14:33:47;3.67;;;1.63;;
41897;SDS011;27576;53.366;-1.498;2023-05-07T14:36:14;3.28;;;1.27;;
41897;SDS011;27576;53.366;-1.498;2023-05-07T14:38:40;3.58;;;1.50;;
41897;SDS011;27576;53.366;-1.498;2023-05-07T14:41:05;4.13;;;1.50;;
41897;SDS011;27576;53.366;-1.498;2023-05-07T14:43:31;2.63;;;1.25;;